createdAt,value
2023-03-22T00:02:11.827Z,9.62
2023-03-22T00:04:42.589Z,9.59
2023-03-22T00:07:11.371Z,9.54
2023-03-22T00:09:40.315Z,9.72
2023-03-22T00:12:08.934Z,9.62
2023-03-22T00:14:37.803Z,9.36
2023-03-22T00:17:06.505Z,9.25
2023-03-22T00:19:34.328Z,9.42
2023-03-22T00:22:03.715Z,9.07
2023-03-22T00:24:33.665Z,9.00
2023-03-22T00:27:02.551Z,9.15
2023-03-22T00:29:31.330Z,9.13
2023-03-22T00:31:59.071Z,9.02
2023-03-22T00:34:31.649Z,9.06
2023-03-22T00:36:59.791Z,8.73
2023-03-22T00:39:27.698Z,8.65
2023-03-22T00:41:55.498Z,8.69
2023-03-22T00:44:24.117Z,8.75
2023-03-22T00:46:51.051Z,8.66
2023-03-22T00:49:18.959Z,8.76
2023-03-22T00:51:45.952Z,8.81
2023-03-22T00:54:13.695Z,8.56
2023-03-22T00:56:40.496Z,8.53
2023-03-22T00:59:08.146Z,8.67
2023-03-22T01:01:34.967Z,8.72
2023-03-22T01:04:03.156Z,8.84
2023-03-22T01:06:31.424Z,8.72
2023-03-22T01:08:59.222Z,8.80
2023-03-22T01:11:26.888Z,8.96
2023-03-22T01:13:55.884Z,9.17
2023-03-22T01:16:23.995Z,9.32
2023-03-22T01:18:51.799Z,9.34
2023-03-22T01:21:19.717Z,9.20
2023-03-22T01:23:46.875Z,9.08
2023-03-22T01:26:13.949Z,8.97
2023-03-22T01:28:41.892Z,9.14
2023-03-22T01:31:09.736Z,9.14
2023-03-22T01:33:36.884Z,9.22
2023-03-22T01:36:05.049Z,9.18
2023-03-22T01:38:32.929Z,9.29
2023-03-22T01:41:00.783Z,9.34
2023-03-22T01:43:27.870Z,9.10
2023-03-22T01:45:55.327Z,8.95
2023-03-22T01:48:42.096Z,8.89
2023-03-22T01:51:25.465Z,8.81
2023-03-22T01:53:57.569Z,8.32
2023-03-22T01:56:28.305Z,8.50
2023-03-22T01:58:56.716Z,8.35
2023-03-22T02:01:25.270Z,8.46
2023-03-22T02:04:03.865Z,8.39
2023-03-22T02:06:32.529Z,8.26
2023-03-22T02:08:59.541Z,8.35
2023-03-22T02:11:35.182Z,8.38
2023-03-22T02:14:09.740Z,8.38
2023-03-22T02:17:04.160Z,8.51
2023-03-22T02:19:48.094Z,8.76
2023-03-22T02:22:53.293Z,9.01
2023-03-22T02:25:20.464Z,8.40
2023-03-22T02:28:01.323Z,8.69
2023-03-22T02:30:38.288Z,8.64
2023-03-22T02:33:15.055Z,8.42
2023-03-22T02:36:01.434Z,8.63
2023-03-22T02:38:57.847Z,8.84
2023-03-22T02:41:35.460Z,8.53
2023-03-22T02:44:27.220Z,8.74
2023-03-22T02:47:04.870Z,8.65
2023-03-22T02:49:43.054Z,8.81
2023-03-22T02:52:26.146Z,8.39
2023-03-22T02:55:04.573Z,8.52
2023-03-22T02:57:41.057Z,8.38
2023-03-22T03:00:16.236Z,8.53
2023-03-22T03:03:00.196Z,8.35
2023-03-22T03:05:31.201Z,8.64
2023-03-22T03:08:02.975Z,8.79
2023-03-22T03:10:30.646Z,8.68
2023-03-22T03:12:59.394Z,8.02
2023-03-22T03:15:27.288Z,8.14
2023-03-22T03:18:13.855Z,8.05
2023-03-22T03:21:01.285Z,7.91
2023-03-22T03:23:47.194Z,7.99
2023-03-22T03:29:54.766Z,7.65
2023-03-22T03:32:38.839Z,7.55
2023-03-22T03:35:23.252Z,7.86
2023-03-22T03:38:03.546Z,8.23
2023-03-22T03:40:35.834Z,8.17
2023-03-22T03:43:06.480Z,7.91
2023-03-22T03:45:37.508Z,7.95
2023-03-22T03:48:09.344Z,8.13
2023-03-22T03:50:38.169Z,7.83
2023-03-22T03:53:05.860Z,7.81
2023-03-22T03:55:33.896Z,7.78
2023-03-22T03:58:00.971Z,7.75
2023-03-22T04:00:28.430Z,7.75
2023-03-22T04:02:55.473Z,7.53
2023-03-22T04:05:23.270Z,7.80
2023-03-22T04:07:51.106Z,7.98
2023-03-22T04:10:18.299Z,7.75
2023-03-22T04:12:45.770Z,7.57
2023-03-22T04:15:13.976Z,7.77
2023-03-22T04:17:41.445Z,7.63
2023-03-22T04:20:11.262Z,7.93
2023-03-22T04:22:38.802Z,8.07
2023-03-22T04:25:13.528Z,7.87
2023-03-22T04:27:42.405Z,7.59
2023-03-22T04:30:20.298Z,7.77
2023-03-22T04:32:48.218Z,8.00
2023-03-22T04:35:16.965Z,8.11
2023-03-22T04:37:45.776Z,7.89
2023-03-22T04:40:16.676Z,7.89
2023-03-22T04:42:44.941Z,7.71
2023-03-22T04:45:13.162Z,7.79
2023-03-22T04:47:40.481Z,7.75
2023-03-22T04:50:09.421Z,7.55
2023-03-22T04:52:37.267Z,7.14
2023-03-22T04:55:04.984Z,7.54
2023-03-22T04:57:31.961Z,7.50
2023-03-22T04:59:58.851Z,7.92
2023-03-22T05:02:25.809Z,8.20
2023-03-22T05:04:52.671Z,8.44
2023-03-22T05:07:20.742Z,8.57
2023-03-22T05:09:47.954Z,8.77
2023-03-22T05:12:14.896Z,8.86
2023-03-22T05:14:42.680Z,9.00
2023-03-22T05:17:11.252Z,8.98
2023-03-22T05:19:38.470Z,8.41
2023-03-22T05:22:05.752Z,7.64
2023-03-22T05:24:33.606Z,7.45
2023-03-22T05:27:01.323Z,7.57
2023-03-22T05:29:29.054Z,7.52
2023-03-22T05:31:56.389Z,7.36
2023-03-22T05:34:24.646Z,7.54
2023-03-22T05:36:52.141Z,7.24
2023-03-22T05:39:20.606Z,7.23
2023-03-22T05:41:47.863Z,7.26
2023-03-22T05:44:15.734Z,7.47
2023-03-22T05:46:42.798Z,7.85
2023-03-22T05:49:12.180Z,7.85
2023-03-22T05:51:41.622Z,7.86
2023-03-22T05:54:09.879Z,7.86
2023-03-22T05:56:37.440Z,8.11
2023-03-22T05:59:04.989Z,8.19
2023-03-22T06:01:33.776Z,8.19
2023-03-22T06:04:00.912Z,8.27
2023-03-22T06:06:28.513Z,8.39
2023-03-22T06:09:06.974Z,8.61
2023-03-22T06:11:41.378Z,9.00
2023-03-22T06:14:08.342Z,9.23
2023-03-22T06:16:36.316Z,9.51
2023-03-22T06:19:03.483Z,9.60
2023-03-22T06:21:30.734Z,9.63
2023-03-22T06:23:57.881Z,9.81
2023-03-22T06:26:26.038Z,10.00
2023-03-22T06:28:53.696Z,9.90
2023-03-22T06:31:20.978Z,9.82
2023-03-22T06:33:48.160Z,9.92
2023-03-22T06:36:15.042Z,10.14
2023-03-22T06:38:42.899Z,10.41
2023-03-22T06:41:10.713Z,9.89
2023-03-22T06:43:37.508Z,10.06
2023-03-22T06:46:04.673Z,10.04
2023-03-22T06:48:32.372Z,10.33
2023-03-22T06:51:01.008Z,10.46
2023-03-22T06:53:28.899Z,10.44
2023-03-22T06:55:55.864Z,10.49
2023-03-22T06:58:23.777Z,10.58
2023-03-22T07:00:52.356Z,10.72
2023-03-22T07:03:20.124Z,10.78
2023-03-22T07:05:47.122Z,10.85
2023-03-22T07:08:14.809Z,11.06
2023-03-22T07:10:43.889Z,11.15
2023-03-22T07:13:11.616Z,11.38
2023-03-22T07:15:38.500Z,11.52
2023-03-22T07:18:07.752Z,11.51
2023-03-22T07:20:41.692Z,11.61
2023-03-22T07:23:10.913Z,11.71
2023-03-22T07:25:38.658Z,11.86
2023-03-22T07:28:07.143Z,11.95
2023-03-22T07:30:38.136Z,11.78
2023-03-22T07:33:07.477Z,11.79
2023-03-22T07:35:36.989Z,11.59
2023-03-22T07:38:05.279Z,11.96
2023-03-22T07:40:33.165Z,12.00
2023-03-22T07:43:00.033Z,12.10
2023-03-22T07:45:27.871Z,12.18
2023-03-22T07:47:55.852Z,12.46
2023-03-22T07:50:23.633Z,12.64
2023-03-22T07:52:50.519Z,12.83
2023-03-22T07:55:18.405Z,12.75
2023-03-22T07:57:46.535Z,12.81
2023-03-22T08:00:14.815Z,13.05
2023-03-22T08:02:45.866Z,13.19
2023-03-22T08:05:12.950Z,13.15
2023-03-22T08:07:39.893Z,13.31
2023-03-22T08:10:08.236Z,13.51
2023-03-22T08:12:35.205Z,13.42
2023-03-22T08:15:03.219Z,13.56
2023-03-22T08:17:31.327Z,13.57
2023-03-22T08:19:58.237Z,13.72
2023-03-22T08:22:29.676Z,13.70
2023-03-22T08:24:56.647Z,13.79
2023-03-22T08:27:24.454Z,13.84
2023-03-22T08:29:51.682Z,13.90
2023-03-22T08:32:19.588Z,14.09
2023-03-22T08:34:47.333Z,14.14
2023-03-22T08:37:15.172Z,14.35
2023-03-22T08:39:44.320Z,14.56
2023-03-22T08:42:11.107Z,14.82
2023-03-22T08:44:38.122Z,14.88
2023-03-22T08:47:05.108Z,15.29
2023-03-22T08:49:33.221Z,15.84
2023-03-22T08:52:01.060Z,16.26
2023-03-22T08:54:33.736Z,16.27
2023-03-22T08:57:03.392Z,16.53
2023-03-22T08:59:31.161Z,16.74
2023-03-22T09:01:58.941Z,16.91
2023-03-22T09:04:27.391Z,16.88
2023-03-22T09:06:54.133Z,16.94
2023-03-22T09:09:21.893Z,17.34
2023-03-22T09:11:48.801Z,16.61
2023-03-22T09:14:15.953Z,17.25
2023-03-22T09:16:43.644Z,17.64
2023-03-22T09:19:11.889Z,17.90
2023-03-22T09:21:39.678Z,18.03
2023-03-22T09:24:07.617Z,18.50
2023-03-22T09:26:34.673Z,18.22
2023-03-22T09:29:02.617Z,17.39
2023-03-22T09:31:29.490Z,17.25
2023-03-22T09:33:56.407Z,17.74
2023-03-22T09:36:24.143Z,18.29
2023-03-22T09:38:50.915Z,18.74
2023-03-22T09:41:41.765Z,18.96
2023-03-22T09:44:16.075Z,19.36
2023-03-22T09:46:48.262Z,19.66
2023-03-22T09:49:25.008Z,19.83
2023-03-22T09:51:54.166Z,19.73
2023-03-22T09:54:35.462Z,19.99
2023-03-22T09:57:26.752Z,19.59
2023-03-22T10:00:14.849Z,19.85
2023-03-22T10:02:45.569Z,19.28
2023-03-22T10:05:23.626Z,19.56
2023-03-22T10:08:20.849Z,19.80
2023-03-22T10:10:49.287Z,20.21
2023-03-22T10:13:44.373Z,19.99
2023-03-22T10:16:18.621Z,20.10
2023-03-22T10:18:51.554Z,20.40
2023-03-22T10:21:20.866Z,20.78
2023-03-22T10:23:54.902Z,20.59
2023-03-22T10:26:32.160Z,20.68
2023-03-22T10:29:04.250Z,20.88
2023-03-22T10:31:34.194Z,20.36
2023-03-22T10:34:17.229Z,20.70
2023-03-22T10:36:46.743Z,20.36
2023-03-22T10:39:26.537Z,20.94
2023-03-22T10:42:00.535Z,20.02
2023-03-22T10:44:34.848Z,20.05
2023-03-22T10:47:08.271Z,20.63
2023-03-22T10:49:45.642Z,21.07
2023-03-22T10:52:31.360Z,21.09
2023-03-22T10:55:04.201Z,19.96
2023-03-22T10:57:31.492Z,19.75
2023-03-22T10:59:58.844Z,19.55
2023-03-22T11:02:31.619Z,19.73
2023-03-22T11:05:02.541Z,19.82
2023-03-22T11:07:36.533Z,19.75
2023-03-22T11:10:09.469Z,19.83
2023-03-22T11:12:39.994Z,19.58
2023-03-22T11:15:19.648Z,19.63
2023-03-22T11:17:46.671Z,19.90
2023-03-22T11:20:19.283Z,19.75
2023-03-22T11:22:48.287Z,19.35
2023-03-22T11:25:29.360Z,19.52
2023-03-22T11:28:05.618Z,19.76
2023-03-22T11:30:34.018Z,20.50
2023-03-22T11:33:00.965Z,21.10
2023-03-22T11:35:31.103Z,21.46
2023-03-22T11:37:59.585Z,21.84
2023-03-22T11:40:30.375Z,21.88
2023-03-22T11:43:03.499Z,21.73
2023-03-22T11:45:37.893Z,21.84
2023-03-22T11:48:10.092Z,21.45
2023-03-22T11:50:41.926Z,21.10
2023-03-22T11:53:17.637Z,20.92
2023-03-22T11:55:47.582Z,21.07
2023-03-22T11:58:40.070Z,21.09
2023-03-22T12:01:12.866Z,21.38
2023-03-22T12:03:43.869Z,21.48
2023-03-22T12:06:22.995Z,21.71
2023-03-22T12:08:59.155Z,22.38
2023-03-22T12:11:46.912Z,21.93
2023-03-22T12:14:17.446Z,22.01
2023-03-22T12:16:50.377Z,22.02
2023-03-22T12:19:31.316Z,22.52
2023-03-22T12:21:59.840Z,22.58
2023-03-22T12:24:31.459Z,22.24
2023-03-22T12:27:10.240Z,21.35
2023-03-22T12:29:44.514Z,21.31
2023-03-22T12:32:32.642Z,21.80
2023-03-22T12:35:18.032Z,22.26
2023-03-22T12:37:54.497Z,22.62
2023-03-22T12:40:26.689Z,22.64
2023-03-22T12:43:16.559Z,21.19
2023-03-22T12:45:49.330Z,20.61
2023-03-22T12:48:21.145Z,20.45
2023-03-22T12:50:56.519Z,20.71
2023-03-22T12:53:30.780Z,21.06
2023-03-22T12:56:00.151Z,20.97
2023-03-22T12:58:28.000Z,21.43
2023-03-22T13:01:01.361Z,21.46
2023-03-22T13:03:44.231Z,21.45
2023-03-22T13:06:35.134Z,21.68
2023-03-22T13:09:17.333Z,21.54
2023-03-22T13:12:05.936Z,20.57
2023-03-22T13:14:58.446Z,21.04
2023-03-22T13:17:26.244Z,21.39
2023-03-22T13:20:11.503Z,21.26
2023-03-22T13:22:39.021Z,21.45
2023-03-22T13:25:23.814Z,21.38
2023-03-22T13:28:12.769Z,22.10
2023-03-22T13:30:58.242Z,22.42
2023-03-22T13:33:29.522Z,22.78
2023-03-22T13:36:08.535Z,23.16
2023-03-22T13:38:42.175Z,23.21
2023-03-22T13:41:12.814Z,23.55
2023-03-22T13:43:40.392Z,22.80
2023-03-22T13:46:08.366Z,22.23
2023-03-22T13:48:42.012Z,23.01
2023-03-22T13:51:13.770Z,23.55
2023-03-22T13:53:47.574Z,23.69
2023-03-22T13:56:49.857Z,24.06
2023-03-22T13:59:23.515Z,23.45
2023-03-22T14:02:18.873Z,22.76
2023-03-22T14:04:56.205Z,23.00
2023-03-22T14:07:26.364Z,22.88
2023-03-22T14:10:00.708Z,23.09
2023-03-22T14:12:37.440Z,22.77
2023-03-22T14:15:07.461Z,22.72
2023-03-22T14:18:03.387Z,23.24
2023-03-22T14:20:37.293Z,23.50
